sensor_id;sensor_type;location;lat;lon;timestamp;temperature;humidity
70762;DHT22;58360;0.000;0.000;2023-02-23T00:01:29;10.40;92.70
70762;DHT22;58360;0.000;0.000;2023-02-23T00:03:57;10.40;92.50
70762;DHT22;58360;0.000;0.000;2023-02-23T00:06:25;10.40;92.50
70762;DHT22;58360;0.000;0.000;2023-02-23T00:08:51;10.30;92.60
70762;DHT22;58360;0.000;0.000;2023-02-23T00:11:17;10.30;92.80
70762;DHT22;58360;0.000;0.000;2023-02-23T00:13:46;10.10;93.10
70762;DHT22;58360;0.000;0.000;2023-02-23T00:16:17;10.00;93.30
70762;DHT22;58360;0.000;0.000;2023-02-23T00:18:57;10.00;93.40
70762;DHT22;58360;0.000;0.000;2023-02-23T00:21:29;10.00;93.50
70762;DHT22;58360;0.000;0.000;2023-02-23T00:24:02;10.10;93.40
70762;DHT22;58360;0.000;0.000;2023-02-23T00:26:29;10.10;93.30
70762;DHT22;58360;0.000;0.000;2023-02-23T00:28:58;10.10;93.40
70762;DHT22;58360;0.000;0.000;2023-02-23T00:31:25;10.20;93.20
70762;DHT22;58360;0.000;0.000;2023-02-23T00:33:57;10.30;93.00
70762;DHT22;58360;0.000;0.000;2023-02-23T00:36:25;10.40;92.70
70762;DHT22;58360;0.000;0.000;2023-02-23T00:38:59;10.40;92.60
70762;DHT22;58360;0.000;0.000;2023-02-23T00:41:26;10.40;92.60
70762;DHT22;58360;0.000;0.000;2023-02-23T00:43:59;10.30;92.70
70762;DHT22;58360;0.000;0.000;2023-02-23T00:46:27;10.50;92.60
70762;DHT22;58360;0.000;0.000;2023-02-23T00:48:55;10.50;92.40
70762;DHT22;58360;0.000;0.000;2023-02-23T00:51:22;10.60;92.00
70762;DHT22;58360;0.000;0.000;2023-02-23T00:53:52;10.50;92.30
70762;DHT22;58360;0.000;0.000;2023-02-23T00:56:17;10.50;92.50
70762;DHT22;58360;0.000;0.000;2023-02-23T00:58:43;10.60;92.30
70762;DHT22;58360;0.000;0.000;2023-02-23T01:01:11;10.50;92.40
70762;DHT22;58360;0.000;0.000;2023-02-23T01:03:39;10.50;92.50
70762;DHT22;58360;0.000;0.000;2023-02-23T01:06:08;10.50;92.60
70762;DHT22;58360;0.000;0.000;2023-02-23T01:08:38;10.40;92.50
70762;DHT22;58360;0.000;0.000;2023-02-23T01:11:09;10.50;92.50
70762;DHT22;58360;0.000;0.000;2023-02-23T01:13:37;10.30;92.80
70762;DHT22;58360;0.000;0.000;2023-02-23T01:16:08;10.40;92.80
70762;DHT22;58360;0.000;0.000;2023-02-23T01:18:35;10.50;92.70
70762;DHT22;58360;0.000;0.000;2023-02-23T01:21:04;10.50;92.40
70762;DHT22;58360;0.000;0.000;2023-02-23T01:23:37;10.50;92.40
70762;DHT22;58360;0.000;0.000;2023-02-23T01:26:03;10.40;92.70
70762;DHT22;58360;0.000;0.000;2023-02-23T01:28:29;10.40;92.90
70762;DHT22;58360;0.000;0.000;2023-02-23T01:30:55;10.30;93.30
70762;DHT22;58360;0.000;0.000;2023-02-23T01:33:20;10.20;93.20
70762;DHT22;58360;0.000;0.000;2023-02-23T01:35:59;10.30;93.20
70762;DHT22;58360;0.000;0.000;2023-02-23T01:38:24;10.20;93.30
70762;DHT22;58360;0.000;0.000;2023-02-23T01:40:50;10.30;93.20
70762;DHT22;58360;0.000;0.000;2023-02-23T01:43:18;10.30;93.20
70762;DHT22;58360;0.000;0.000;2023-02-23T01:45:55;10.20;93.20
70762;DHT22;58360;0.000;0.000;2023-02-23T01:48:24;10.30;93.10
70762;DHT22;58360;0.000;0.000;2023-02-23T01:51:18;10.30;93.30
70762;DHT22;58360;0.000;0.000;2023-02-23T01:53:57;10.20;93.30
70762;DHT22;58360;0.000;0.000;2023-02-23T01:56:30;10.10;93.30
70762;DHT22;58360;0.000;0.000;2023-02-23T01:58:57;10.00;93.50
70762;DHT22;58360;0.000;0.000;2023-02-23T02:01:23;10.10;93.60
70762;DHT22;58360;0.000;0.000;2023-02-23T02:03:58;10.00;93.40
70762;DHT22;58360;0.000;0.000;2023-02-23T02:06:26;10.00;93.50
70762;DHT22;58360;0.000;0.000;2023-02-23T02:08:58;10.00;93.60
70762;DHT22;58360;0.000;0.000;2023-02-23T02:11:24;10.00;93.60
70762;DHT22;58360;0.000;0.000;2023-02-23T02:13:57;10.00;93.40
70762;DHT22;58360;0.000;0.000;2023-02-23T02:37:15;9.80;93.40
70762;DHT22;58360;0.000;0.000;2023-02-23T02:43:04;9.70;93.40
70762;DHT22;58360;0.000;0.000;2023-02-23T02:51:47;9.50;93.50
70762;DHT22;58360;0.000;0.000;2023-02-23T02:54:38;9.50;93.60
70762;DHT22;58360;0.000;0.000;2023-02-23T02:57:06;9.60;93.60
70762;DHT22;58360;0.000;0.000;2023-02-23T02:59:46;9.60;93.30
70762;DHT22;58360;0.000;0.000;2023-02-23T03:02:38;9.60;93.20
70762;DHT22;58360;0.000;0.000;2023-02-23T03:05:27;9.50;93.10
70762;DHT22;58360;0.000;0.000;2023-02-23T03:08:20;9.60;93.30
70762;DHT22;58360;0.000;0.000;2023-02-23T03:11:10;9.50;93.30
70762;DHT22;58360;0.000;0.000;2023-02-23T03:14:37;9.60;93.30
70762;DHT22;58360;0.000;0.000;2023-02-23T03:17:33;9.60;93.10
70762;DHT22;58360;0.000;0.000;2023-02-23T03:20:41;9.70;93.10
70762;DHT22;58360;0.000;0.000;2023-02-23T03:26:34;9.50;93.00
70762;DHT22;58360;0.000;0.000;2023-02-23T03:29:42;9.50;93.10
70762;DHT22;58360;0.000;0.000;2023-02-23T03:38:27;9.50;93.00
70762;DHT22;58360;0.000;0.000;2023-02-23T03:41:14;9.50;93.10
70762;DHT22;58360;0.000;0.000;2023-02-23T03:44:03;9.40;93.20
70762;DHT22;58360;0.000;0.000;2023-02-23T03:46:50;9.40;93.20
70762;DHT22;58360;0.000;0.000;2023-02-23T03:49:37;9.40;93.20
70762;DHT22;58360;0.000;0.000;2023-02-23T03:52:26;9.40;93.00
70762;DHT22;58360;0.000;0.000;2023-02-23T03:55:20;9.50;93.20
70762;DHT22;58360;0.000;0.000;2023-02-23T03:58:09;9.60;93.00
70762;DHT22;58360;0.000;0.000;2023-02-23T04:00:55;9.50;92.90
70762;DHT22;58360;0.000;0.000;2023-02-23T04:03:43;9.50;92.90
70762;DHT22;58360;0.000;0.000;2023-02-23T04:06:35;9.50;92.90
70762;DHT22;58360;0.000;0.000;2023-02-23T04:09:21;9.50;92.90
70762;DHT22;58360;0.000;0.000;2023-02-23T04:17:40;9.40;92.90
70762;DHT22;58360;0.000;0.000;2023-02-23T04:20:08;9.30;92.80
70762;DHT22;58360;0.000;0.000;2023-02-23T04:22:35;9.20;92.90
70762;DHT22;58360;0.000;0.000;2023-02-23T04:25:01;9.30;93.00
70762;DHT22;58360;0.000;0.000;2023-02-23T04:27:27;9.30;93.00
70762;DHT22;58360;0.000;0.000;2023-02-23T04:29:52;9.30;93.00
70762;DHT22;58360;0.000;0.000;2023-02-23T04:32:19;9.30;93.10
70762;DHT22;58360;0.000;0.000;2023-02-23T04:34:45;9.30;92.90
70762;DHT22;58360;0.000;0.000;2023-02-23T04:37:11;9.30;93.10
70762;DHT22;58360;0.000;0.000;2023-02-23T04:39:37;9.40;92.70
70762;DHT22;58360;0.000;0.000;2023-02-23T04:42:03;9.40;92.70
70762;DHT22;58360;0.000;0.000;2023-02-23T04:44:29;9.50;92.70
70762;DHT22;58360;0.000;0.000;2023-02-23T04:46:56;9.50;92.60
70762;DHT22;58360;0.000;0.000;2023-02-23T04:49:22;9.40;92.50
70762;DHT22;58360;0.000;0.000;2023-02-23T04:51:48;9.40;92.70
70762;DHT22;58360;0.000;0.000;2023-02-23T04:54:14;9.30;92.90
70762;DHT22;58360;0.000;0.000;2023-02-23T04:56:40;9.30;92.90
70762;DHT22;58360;0.000;0.000;2023-02-23T04:59:05;9.20;93.30
70762;DHT22;58360;0.000;0.000;2023-02-23T05:01:31;9.20;93.10
70762;DHT22;58360;0.000;0.000;2023-02-23T05:03:57;9.10;93.30
70762;DHT22;58360;0.000;0.000;2023-02-23T05:06:24;9.10;93.60
70762;DHT22;58360;0.000;0.000;2023-02-23T05:08:52;9.30;93.20
70762;DHT22;58360;0.000;0.000;2023-02-23T05:11:18;9.30;93.10
70762;DHT22;58360;0.000;0.000;2023-02-23T05:13:44;9.30;93.00
70762;DHT22;58360;0.000;0.000;2023-02-23T05:16:09;9.20;93.00
70762;DHT22;58360;0.000;0.000;2023-02-23T05:18:35;9.10;93.30
70762;DHT22;58360;0.000;0.000;2023-02-23T05:21:03;9.10;93.40
70762;DHT22;58360;0.000;0.000;2023-02-23T05:23:31;9.20;93.30
70762;DHT22;58360;0.000;0.000;2023-02-23T05:26:05;9.20;93.30
70762;DHT22;58360;0.000;0.000;2023-02-23T05:28:34;9.20;93.20
70762;DHT22;58360;0.000;0.000;2023-02-23T05:31:01;9.30;93.10
70762;DHT22;58360;0.000;0.000;2023-02-23T05:33:31;9.30;93.00
70762;DHT22;58360;0.000;0.000;2023-02-23T05:35:57;9.50;92.80
70762;DHT22;58360;0.000;0.000;2023-02-23T05:38:24;9.40;92.60
70762;DHT22;58360;0.000;0.000;2023-02-23T05:40:52;9.40;92.80
70762;DHT22;58360;0.000;0.000;2023-02-23T05:43:17;9.40;92.70
70762;DHT22;58360;0.000;0.000;2023-02-23T05:45:43;9.60;92.70
70762;DHT22;58360;0.000;0.000;2023-02-23T05:48:10;9.50;92.60
70762;DHT22;58360;0.000;0.000;2023-02-23T05:50:36;9.40;92.60
70762;DHT22;58360;0.000;0.000;2023-02-23T05:53:02;9.40;92.60
70762;DHT22;58360;0.000;0.000;2023-02-23T05:55:28;9.40;92.80
70762;DHT22;58360;0.000;0.000;2023-02-23T05:57:54;9.40;93.10
70762;DHT22;58360;0.000;0.000;2023-02-23T06:00:20;9.40;92.90
70762;DHT22;58360;0.000;0.000;2023-02-23T06:02:46;9.40;92.80
70762;DHT22;58360;0.000;0.000;2023-02-23T06:05:12;9.50;92.70
70762;DHT22;58360;0.000;0.000;2023-02-23T06:07:39;9.50;92.70
70762;DHT22;58360;0.000;0.000;2023-02-23T06:10:06;9.50;92.60
70762;DHT22;58360;0.000;0.000;2023-02-23T06:12:31;9.40;92.50
70762;DHT22;58360;0.000;0.000;2023-02-23T06:14:57;9.40;92.60
70762;DHT22;58360;0.000;0.000;2023-02-23T06:17:23;9.40;92.70
70762;DHT22;58360;0.000;0.000;2023-02-23T06:19:49;9.40;92.70
70762;DHT22;58360;0.000;0.000;2023-02-23T06:22:15;9.30;92.60
70762;DHT22;58360;0.000;0.000;2023-02-23T06:24:44;9.30;92.70
70762;DHT22;58360;0.000;0.000;2023-02-23T06:27:11;9.40;92.90
70762;DHT22;58360;0.000;0.000;2023-02-23T06:29:38;9.50;92.70
70762;DHT22;58360;0.000;0.000;2023-02-23T06:32:04;9.40;92.70
70762;DHT22;58360;0.000;0.000;2023-02-23T06:34:30;9.20;93.00
70762;DHT22;58360;0.000;0.000;2023-02-23T06:36:56;8.90;93.70
70762;DHT22;58360;0.000;0.000;2023-02-23T06:39:22;8.80;94.00
70762;DHT22;58360;0.000;0.000;2023-02-23T06:41:47;8.70;94.30
70762;DHT22;58360;0.000;0.000;2023-02-23T06:44:13;8.60;94.50
70762;DHT22;58360;0.000;0.000;2023-02-23T06:46:39;8.50;94.80
70762;DHT22;58360;0.000;0.000;2023-02-23T06:49:05;8.50;94.90
70762;DHT22;58360;0.000;0.000;2023-02-23T06:51:31;8.50;95.10
70762;DHT22;58360;0.000;0.000;2023-02-23T06:53:56;8.60;95.00
70762;DHT22;58360;0.000;0.000;2023-02-23T06:56:22;8.70;94.60
70762;DHT22;58360;0.000;0.000;2023-02-23T06:58:48;8.70;94.50
70762;DHT22;58360;0.000;0.000;2023-02-23T07:01:15;8.80;94.40
70762;DHT22;58360;0.000;0.000;2023-02-23T07:03:41;8.90;94.30
70762;DHT22;58360;0.000;0.000;2023-02-23T07:06:07;8.90;94.10
70762;DHT22;58360;0.000;0.000;2023-02-23T07:08:33;9.00;94.00
70762;DHT22;58360;0.000;0.000;2023-02-23T07:13:32;9.10;93.90
70762;DHT22;58360;0.000;0.000;2023-02-23T07:15:58;9.10;93.80
70762;DHT22;58360;0.000;0.000;2023-02-23T07:18:23;9.20;93.60
70762;DHT22;58360;0.000;0.000;2023-02-23T07:20:49;9.30;93.60
70762;DHT22;58360;0.000;0.000;2023-02-23T07:23:16;9.30;93.10
70762;DHT22;58360;0.000;0.000;2023-02-23T07:25:42;9.40;93.10
70762;DHT22;58360;0.000;0.000;2023-02-23T07:28:08;9.40;93.00
70762;DHT22;58360;0.000;0.000;2023-02-23T07:30:34;9.50;92.90
70762;DHT22;58360;0.000;0.000;2023-02-23T07:32:59;9.50;92.90
70762;DHT22;58360;0.000;0.000;2023-02-23T07:35:25;9.60;92.70
70762;DHT22;58360;0.000;0.000;2023-02-23T07:37:51;9.60;92.60
70762;DHT22;58360;0.000;0.000;2023-02-23T07:40:18;9.70;92.60
70762;DHT22;58360;0.000;0.000;2023-02-23T07:42:44;9.70;92.40
70762;DHT22;58360;0.000;0.000;2023-02-23T07:45:10;9.70;92.30
70762;DHT22;58360;0.000;0.000;2023-02-23T07:47:36;9.70;92.40
70762;DHT22;58360;0.000;0.000;2023-02-23T07:50:04;9.80;92.30
70762;DHT22;58360;0.000;0.000;2023-02-23T07:52:35;9.80;92.30
70762;DHT22;58360;0.000;0.000;2023-02-23T07:55:02;9.80;92.30
70762;DHT22;58360;0.000;0.000;2023-02-23T07:57:27;9.80;92.10
70762;DHT22;58360;0.000;0.000;2023-02-23T07:59:53;9.70;92.10
70762;DHT22;58360;0.000;0.000;2023-02-23T08:02:19;9.60;92.30
70762;DHT22;58360;0.000;0.000;2023-02-23T08:04:45;9.70;92.30
70762;DHT22;58360;0.000;0.000;2023-02-23T08:07:10;9.80;92.10
70762;DHT22;58360;0.000;0.000;2023-02-23T08:09:36;9.80;92.00
70762;DHT22;58360;0.000;0.000;2023-02-23T08:12:02;9.90;91.90
70762;DHT22;58360;0.000;0.000;2023-02-23T08:14:28;10.00;91.80
70762;DHT22;58360;0.000;0.000;2023-02-23T08:16:54;10.10;91.60
70762;DHT22;58360;0.000;0.000;2023-02-23T08:19:20;10.10;91.60
70762;DHT22;58360;0.000;0.000;2023-02-23T08:21:49;10.10;91.40
70762;DHT22;58360;0.000;0.000;2023-02-23T08:24:15;10.10;91.50
70762;DHT22;58360;0.000;0.000;2023-02-23T08:26:41;10.20;91.40
70762;DHT22;58360;0.000;0.000;2023-02-23T08:29:08;10.40;91.20
70762;DHT22;58360;0.000;0.000;2023-02-23T08:31:34;10.30;90.80
70762;DHT22;58360;0.000;0.000;2023-02-23T08:34:02;10.40;91.10
70762;DHT22;58360;0.000;0.000;2023-02-23T08:36:27;10.50;91.00
70762;DHT22;58360;0.000;0.000;2023-02-23T08:38:53;10.60;90.80
70762;DHT22;58360;0.000;0.000;2023-02-23T08:41:19;10.80;90.40
70762;DHT22;58360;0.000;0.000;2023-02-23T08:43:46;10.90;90.20
70762;DHT22;58360;0.000;0.000;2023-02-23T08:46:12;10.90;90.00
70762;DHT22;58360;0.000;0.000;2023-02-23T08:48:38;10.70;89.90
70762;DHT22;58360;0.000;0.000;2023-02-23T08:51:05;10.70;90.40
70762;DHT22;58360;0.000;0.000;2023-02-23T08:53:32;10.70;90.30
70762;DHT22;58360;0.000;0.000;2023-02-23T08:55:59;10.70;90.20
70762;DHT22;58360;0.000;0.000;2023-02-23T08:58:27;10.60;90.40
70762;DHT22;58360;0.000;0.000;2023-02-23T09:00:53;10.60;90.50
70762;DHT22;58360;0.000;0.000;2023-02-23T09:03:19;10.70;90.40
70762;DHT22;58360;0.000;0.000;2023-02-23T09:05:45;10.70;90.40
70762;DHT22;58360;0.000;0.000;2023-02-23T09:08:12;10.70;90.60
70762;DHT22;58360;0.000;0.000;2023-02-23T09:10:38;10.70;90.50
70762;DHT22;58360;0.000;0.000;2023-02-23T09:13:04;10.70;90.20
70762;DHT22;58360;0.000;0.000;2023-02-23T09:15:30;10.50;90.30
70762;DHT22;58360;0.000;0.000;2023-02-23T09:18:02;10.50;90.40
70762;DHT22;58360;0.000;0.000;2023-02-23T09:20:28;10.60;90.60
70762;DHT22;58360;0.000;0.000;2023-02-23T09:22:54;10.60;90.60
70762;DHT22;58360;0.000;0.000;2023-02-23T09:25:21;10.50;90.60
70762;DHT22;58360;0.000;0.000;2023-02-23T09:27:51;10.60;90.60
70762;DHT22;58360;0.000;0.000;2023-02-23T09:30:19;10.70;90.50
70762;DHT22;58360;0.000;0.000;2023-02-23T09:32:50;10.70;90.30
70762;DHT22;58360;0.000;0.000;2023-02-23T09:35:18;10.70;90.30
70762;DHT22;58360;0.000;0.000;2023-02-23T09:37:48;10.90;90.30
70762;DHT22;58360;0.000;0.000;2023-02-23T09:40:17;11.00;90.00
70762;DHT22;58360;0.000;0.000;2023-02-23T09:42:48;11.20;89.20
70762;DHT22;58360;0.000;0.000;2023-02-23T09:50:27;11.20;88.30
70762;DHT22;58360;0.000;0.000;2023-02-23T09:53:12;11.30;87.40
70762;DHT22;58360;0.000;0.000;2023-02-23T09:55:40;11.20;87.60
70762;DHT22;58360;0.000;0.000;2023-02-23T09:58:32;11.30;87.70
70762;DHT22;58360;0.000;0.000;2023-02-23T10:06:42;11.30;86.60
70762;DHT22;58360;0.000;0.000;2023-02-23T10:12:01;11.30;87.90
70762;DHT22;58360;0.000;0.000;2023-02-23T10:19:55;11.50;87.50
70762;DHT22;58360;0.000;0.000;2023-02-23T10:22:24;11.40;87.50
70762;DHT22;58360;0.000;0.000;2023-02-23T10:25:03;11.40;87.70
70762;DHT22;58360;0.000;0.000;2023-02-23T10:27:49;11.50;87.30
70762;DHT22;58360;0.000;0.000;2023-02-23T10:30:27;11.40;87.30
70762;DHT22;58360;0.000;0.000;2023-02-23T10:35:30;11.30;87.90
70762;DHT22;58360;0.000;0.000;2023-02-23T10:37:57;11.40;87.70
70762;DHT22;58360;0.000;0.000;2023-02-23T10:40:26;11.50;87.30
70762;DHT22;58360;0.000;0.000;2023-02-23T10:42:54;11.40;86.40
70762;DHT22;58360;0.000;0.000;2023-02-23T10:45:22;11.50;86.50
70762;DHT22;58360;0.000;0.000;2023-02-23T10:47:56;11.70;85.80
70762;DHT22;58360;0.000;0.000;2023-02-23T10:50:23;11.90;85.60
70762;DHT22;58360;0.000;0.000;2023-02-23T10:53:03;11.90;84.90
70762;DHT22;58360;0.000;0.000;2023-02-23T10:55:34;11.80;84.70
70762;DHT22;58360;0.000;0.000;2023-02-23T10:58:17;11.90;85.10
70762;DHT22;58360;0.000;0.000;2023-02-23T11:00:58;11.80;84.90
70762;DHT22;58360;0.000;0.000;2023-02-23T11:03:39;11.80;84.90
70762;DHT22;58360;0.000;0.000;2023-02-23T11:06:12;12.00;84.60
70762;DHT22;58360;0.000;0.000;2023-02-23T11:08:50;12.10;84.50
70762;DHT22;58360;0.000;0.000;2023-02-23T11:11:21;12.50;82.80
70762;DHT22;58360;0.000;0.000;2023-02-23T11:13:50;12.50;81.20
70762;DHT22;58360;0.000;0.000;2023-02-23T11:16:19;12.60;81.90
70762;DHT22;58360;0.000;0.000;2023-02-23T11:18:54;12.80;81.50
70762;DHT22;58360;0.000;0.000;2023-02-23T11:21:27;12.90;80.20
70762;DHT22;58360;0.000;0.000;2023-02-23T11:23:56;13.00;80.80
70762;DHT22;58360;0.000;0.000;2023-02-23T11:26:53;13.20;79.70
70762;DHT22;58360;0.000;0.000;2023-02-23T11:32:11;13.50;78.40
70762;DHT22;58360;0.000;0.000;2023-02-23T11:34:38;13.50;78.20
70762;DHT22;58360;0.000;0.000;2023-02-23T11:40:00;13.30;78.60
70762;DHT22;58360;0.000;0.000;2023-02-23T11:42:30;13.50;77.70
70762;DHT22;58360;0.000;0.000;2023-02-23T11:45:13;13.50;76.70
70762;DHT22;58360;0.000;0.000;2023-02-23T11:47:43;13.70;76.40
70762;DHT22;58360;0.000;0.000;2023-02-23T11:50:29;13.80;75.80
70762;DHT22;58360;0.000;0.000;2023-02-23T11:53:11;13.80;76.90
70762;DHT22;58360;0.000;0.000;2023-02-23T11:55:46;13.90;75.70
70762;DHT22;58360;0.000;0.000;2023-02-23T11:58:26;13.70;75.80
70762;DHT22;58360;0.000;0.000;2023-02-23T12:00:55;13.80;76.10
70762;DHT22;58360;0.000;0.000;2023-02-23T12:03:22;13.80;75.60
70762;DHT22;58360;0.000;0.000;2023-02-23T12:05:54;14.20;74.90
70762;DHT22;58360;0.000;0.000;2023-02-23T12:08:48;14.60;73.30
70762;DHT22;58360;0.000;0.000;2023-02-23T12:11:23;14.80;71.20
70762;DHT22;58360;0.000;0.000;2023-02-23T12:13:55;14.70;71.80
70762;DHT22;58360;0.000;0.000;2023-02-23T12:27:05;13.50;74.40
70762;DHT22;58360;0.000;0.000;2023-02-23T12:32:19;13.30;76.00
70762;DHT22;58360;0.000;0.000;2023-02-23T12:37:39;12.90;76.40
70762;DHT22;58360;0.000;0.000;2023-02-23T12:40:35;12.80;77.30
70762;DHT22;58360;0.000;0.000;2023-02-23T12:43:13;13.00;77.20
70762;DHT22;58360;0.000;0.000;2023-02-23T12:50:55;13.20;74.80
70762;DHT22;58360;0.000;0.000;2023-02-23T12:56:46;13.10;75.50
70762;DHT22;58360;0.000;0.000;2023-02-23T13:01:58;12.90;76.10
70762;DHT22;58360;0.000;0.000;2023-02-23T13:07:34;12.80;76.30
70762;DHT22;58360;0.000;0.000;2023-02-23T13:16:09;12.70;77.20
70762;DHT22;58360;0.000;0.000;2023-02-23T13:18:56;12.80;77.10
70762;DHT22;58360;0.000;0.000;2023-02-23T13:21:35;13.00;75.70
70762;DHT22;58360;0.000;0.000;2023-02-23T13:24:30;13.10;73.10
70762;DHT22;58360;0.000;0.000;2023-02-23T13:29:44;13.10;73.50
70762;DHT22;58360;0.000;0.000;2023-02-23T13:32:15;13.10;73.80
70762;DHT22;58360;0.000;0.000;2023-02-23T13:34:47;13.00;73.00
70762;DHT22;58360;0.000;0.000;2023-02-23T13:37:19;13.10;72.00
70762;DHT22;58360;0.000;0.000;2023-02-23T13:40:00;13.00;72.10
70762;DHT22;58360;0.000;0.000;2023-02-23T13:48:24;12.80;72.80
70762;DHT22;58360;0.000;0.000;2023-02-23T13:50:56;12.70;73.50
70762;DHT22;58360;0.000;0.000;2023-02-23T13:53:45;12.70;74.10
70762;DHT22;58360;0.000;0.000;2023-02-23T13:56:16;12.60;74.40
70762;DHT22;58360;0.000;0.000;2023-02-23T13:59:01;12.70;74.90
70762;DHT22;58360;0.000;0.000;2023-02-23T14:01:34;12.70;73.60
70762;DHT22;58360;0.000;0.000;2023-02-23T14:04:03;12.60;73.60
70762;DHT22;58360;0.000;0.000;2023-02-23T14:06:33;12.60;74.80
70762;DHT22;58360;0.000;0.000;2023-02-23T14:09:07;12.50;74.60
70762;DHT22;58360;0.000;0.000;2023-02-23T14:33:49;12.60;74.50
70762;DHT22;58360;0.000;0.000;2023-02-23T14:41:57;12.50;73.20
70762;DHT22;58360;0.000;0.000;2023-02-23T14:44:34;12.50;73.00
70762;DHT22;58360;0.000;0.000;2023-02-23T14:47:05;12.60;73.20
70762;DHT22;58360;0.000;0.000;2023-02-23T14:49:35;12.60;72.50
70762;DHT22;58360;0.000;0.000;2023-02-23T14:52:16;12.50;72.40
70762;DHT22;58360;0.000;0.000;2023-02-23T14:54:44;12.60;72.90
70762;DHT22;58360;0.000;0.000;2023-02-23T14:57:24;12.70;72.00
70762;DHT22;58360;0.000;0.000;2023-02-23T15:00:02;12.90;71.50
70762;DHT22;58360;0.000;0.000;2023-02-23T15:02:31;13.00;71.30
70762;DHT22;58360;0.000;0.000;2023-02-23T15:04:57;13.10;71.30
70762;DHT22;58360;0.000;0.000;2023-02-23T15:07:38;13.10;71.70
70762;DHT22;58360;0.000;0.000;2023-02-23T15:10:09;12.90;71.40
70762;DHT22;58360;0.000;0.000;2023-02-23T15:12:36;12.70;72.00
70762;DHT22;58360;0.000;0.000;2023-02-23T15:15:06;12.60;73.00
70762;DHT22;58360;0.000;0.000;2023-02-23T15:17:37;12.50;73.50
70762;DHT22;58360;0.000;0.000;2023-02-23T15:20:06;12.60;74.20
70762;DHT22;58360;0.000;0.000;2023-02-23T15:22:37;12.60;74.50
70762;DHT22;58360;0.000;0.000;2023-02-23T15:25:22;12.70;75.10
70762;DHT22;58360;0.000;0.000;2023-02-23T15:27:49;12.70;74.60
70762;DHT22;58360;0.000;0.000;2023-02-23T15:30:27;12.70;75.60
70762;DHT22;58360;0.000;0.000;2023-02-23T15:33:15;12.70;75.20
70762;DHT22;58360;0.000;0.000;2023-02-23T15:35:54;12.60;74.90
70762;DHT22;58360;0.000;0.000;2023-02-23T15:38:26;12.60;75.40
70762;DHT22;58360;0.000;0.000;2023-02-23T15:41:01;12.40;76.40
70762;DHT22;58360;0.000;0.000;2023-02-23T15:43:28;12.20;76.20
70762;DHT22;58360;0.000;0.000;2023-02-23T15:46:00;12.10;76.10
70762;DHT22;58360;0.000;0.000;2023-02-23T15:48:45;12.00;76.60
70762;DHT22;58360;0.000;0.000;2023-02-23T15:51:26;12.00;76.10
70762;DHT22;58360;0.000;0.000;2023-02-23T15:53:54;12.00;76.50
70762;DHT22;58360;0.000;0.000;2023-02-23T15:56:28;11.90;76.40
70762;DHT22;58360;0.000;0.000;2023-02-23T15:59:00;12.00;75.90
70762;DHT22;58360;0.000;0.000;2023-02-23T16:01:28;12.00;75.00
70762;DHT22;58360;0.000;0.000;2023-02-23T16:04:06;11.90;74.70
70762;DHT22;58360;0.000;0.000;2023-02-23T16:06:35;11.70;75.40
70762;DHT22;58360;0.000;0.000;2023-02-23T16:19:53;11.70;74.30
70762;DHT22;58360;0.000;0.000;2023-02-23T16:22:24;11.90;74.10
70762;DHT22;58360;0.000;0.000;2023-02-23T16:25:02;11.80;74.70
70762;DHT22;58360;0.000;0.000;2023-02-23T16:27:30;11.60;74.80
70762;DHT22;58360;0.000;0.000;2023-02-23T16:29:58;11.60;74.60
70762;DHT22;58360;0.000;0.000;2023-02-23T16:32:32;11.60;73.70
70762;DHT22;58360;0.000;0.000;2023-02-23T16:35:00;11.40;74.80
70762;DHT22;58360;0.000;0.000;2023-02-23T16:37:26;11.30;74.90
70762;DHT22;58360;0.000;0.000;2023-02-23T16:39:53;11.30;74.70
70762;DHT22;58360;0.000;0.000;2023-02-23T16:42:30;11.20;73.30
70762;DHT22;58360;0.000;0.000;2023-02-23T16:44:57;11.30;73.60
70762;DHT22;58360;0.000;0.000;2023-02-23T16:49:50;11.20;72.90
70762;DHT22;58360;0.000;0.000;2023-02-23T16:52:19;11.30;73.70
70762;DHT22;58360;0.000;0.000;2023-02-23T16:54:46;11.30;72.80
70762;DHT22;58360;0.000;0.000;2023-02-23T16:57:27;11.30;72.50
70762;DHT22;58360;0.000;0.000;2023-02-23T16:59:54;11.30;71.90
70762;DHT22;58360;0.000;0.000;2023-02-23T17:02:22;11.20;72.20
70762;DHT22;58360;0.000;0.000;2023-02-23T17:04:49;11.20;71.70
70762;DHT22;58360;0.000;0.000;2023-02-23T17:07:17;11.20;72.10
70762;DHT22;58360;0.000;0.000;2023-02-23T17:09:43;11.20;71.90
70762;DHT22;58360;0.000;0.000;2023-02-23T17:12:13;11.30;71.40
70762;DHT22;58360;0.000;0.000;2023-02-23T17:14:43;11.30;71.80
70762;DHT22;58360;0.000;0.000;2023-02-23T17:17:17;11.30;71.70
70762;DHT22;58360;0.000;0.000;2023-02-23T17:19:43;11.30;71.70
70762;DHT22;58360;0.000;0.000;2023-02-23T17:22:10;11.30;71.60
70762;DHT22;58360;0.000;0.000;2023-02-23T17:24:37;11.20;72.50
70762;DHT22;58360;0.000;0.000;2023-02-23T17:27:03;11.20;72.50
70762;DHT22;58360;0.000;0.000;2023-02-23T17:29:29;11.20;72.40
70762;DHT22;58360;0.000;0.000;2023-02-23T17:31:54;11.20;72.60
70762;DHT22;58360;0.000;0.000;2023-02-23T17:34:25;11.10;72.50
70762;DHT22;58360;0.000;0.000;2023-02-23T17:36:51;11.10;72.80
70762;DHT22;58360;0.000;0.000;2023-02-23T17:39:17;11.00;73.30
70762;DHT22;58360;0.000;0.000;2023-02-23T17:41:43;11.00;73.60
70762;DHT22;58360;0.000;0.000;2023-02-23T17:44:09;11.00;73.50
70762;DHT22;58360;0.000;0.000;2023-02-23T17:46:35;11.00;74.00
70762;DHT22;58360;0.000;0.000;2023-02-23T17:49:01;11.00;74.30
70762;DHT22;58360;0.000;0.000;2023-02-23T17:51:27;11.00;74.60
70762;DHT22;58360;0.000;0.000;2023-02-23T17:53:52;11.10;74.40
70762;DHT22;58360;0.000;0.000;2023-02-23T17:56:18;11.00;74.80
70762;DHT22;58360;0.000;0.000;2023-02-23T17:58:46;11.00;75.20
70762;DHT22;58360;0.000;0.000;2023-02-23T18:01:12;11.00;75.50
70762;DHT22;58360;0.000;0.000;2023-02-23T18:03:38;11.00;75.50
70762;DHT22;58360;0.000;0.000;2023-02-23T18:06:13;11.10;75.60
70762;DHT22;58360;0.000;0.000;2023-02-23T18:08:40;11.10;75.60
70762;DHT22;58360;0.000;0.000;2023-02-23T18:11:08;11.10;75.70
70762;DHT22;58360;0.000;0.000;2023-02-23T18:13:33;11.10;75.70
70762;DHT22;58360;0.000;0.000;2023-02-23T18:16:09;11.10;75.90
70762;DHT22;58360;0.000;0.000;2023-02-23T18:18:40;11.00;76.10
70762;DHT22;58360;0.000;0.000;2023-02-23T18:21:15;11.00;76.40
70762;DHT22;58360;0.000;0.000;2023-02-23T18:23:41;11.00;76.50
70762;DHT22;58360;0.000;0.000;2023-02-23T18:26:12;11.00;76.80
70762;DHT22;58360;0.000;0.000;2023-02-23T18:28:38;10.90;77.30
70762;DHT22;58360;0.000;0.000;2023-02-23T18:31:05;10.90;77.80
70762;DHT22;58360;0.000;0.000;2023-02-23T18:33:31;10.90;78.30
70762;DHT22;58360;0.000;0.000;2023-02-23T18:36:00;10.90;78.80
70762;DHT22;58360;0.000;0.000;2023-02-23T18:38:25;10.90;79.20
70762;DHT22;58360;0.000;0.000;2023-02-23T18:40:51;10.90;79.30
70762;DHT22;58360;0.000;0.000;2023-02-23T18:43:17;10.80;79.90
70762;DHT22;58360;0.000;0.000;2023-02-23T18:45:43;10.70;80.70
70762;DHT22;58360;0.000;0.000;2023-02-23T18:48:09;10.70;81.00
70762;DHT22;58360;0.000;0.000;2023-02-23T18:50:38;10.80;81.00
70762;DHT22;58360;0.000;0.000;2023-02-23T18:53:04;10.80;81.00
70762;DHT22;58360;0.000;0.000;2023-02-23T18:55:30;10.80;81.50